Time;durP1;ratioP1;P1;durP2;ratioP2;P2;SDS_P1;SDS_P2;PMS_P1;PMS_P2;Temp;Humidity;BMP_temperature;BMP_pressure;BME280_temperature;BME280_humidity;BME280_pressure;Samples;Min_cycle;Max_cycle;Signal;HPM_P1;HPM_P2
2021/11/19 00:00:47;;;;;;;9.40;8.50;;;;;;;6.13;80.59;96950.94;4993598;28;20211;-81
2021/11/19 00:03:14;;;;;;;10.50;9.40;;;;;;;6.17;80.19;96948.94;4992958;28;20219;-80
2021/11/19 00:05:42;;;;;;;9.93;8.93;;;;;;;6.20;80.46;96946.16;4992793;28;20277;-82
2021/11/19 00:08:09;;;;;;;9.47;8.57;;;;;;;6.23;80.13;96943.38;4992708;28;20217;-85
2021/11/19 00:10:39;;;;;;;9.97;9.03;;;;;;;6.19;80.17;96949.66;5005176;23;20227;-85
2021/11/19 00:13:09;;;;;;;10.00;9.00;;;;;;;6.23;79.51;96957.00;4975612;28;20209;-85
2021/11/19 00:15:48;;;;;;;9.63;8.70;;;;;;;6.28;79.55;96943.03;4992545;28;20672;-85
2021/11/19 00:18:18;;;;;;;10.17;8.37;;;;;;;6.28;79.46;96941.31;4994195;28;20203;-85
2021/11/19 00:20:47;;;;;;;9.97;8.97;;;;;;;6.30;79.38;96939.44;4992032;28;20231;-85
2021/11/19 00:23:31;;;;;;;9.97;8.97;;;;;;;6.20;79.58;96949.53;4988165;28;20230;-85
2021/11/19 00:26:01;;;;;;;10.20;9.20;;;;;;;6.21;79.73;96960.59;4989631;28;20207;-85
2021/11/19 00:28:30;;;;;;;9.20;8.30;;;;;;;6.19;78.99;96960.69;4991436;28;20209;-85
2021/11/19 00:31:05;;;;;;;9.87;8.87;;;;;;;6.20;79.34;96964.88;4979692;28;20702;-85
2021/11/19 00:33:45;;;;;;;9.23;8.33;;;;;;;6.21;79.35;96963.16;4974287;28;20219;-85
2021/11/19 00:36:40;;;;;;;9.80;8.80;;;;;;;6.24;78.85;96961.16;4956414;29;20211;-85
2021/11/19 00:39:26;;;;;;;9.63;8.63;;;;;;;6.27;78.68;96967.81;4974922;28;20236;-85
2021/11/19 00:41:56;;;;;;;10.23;8.43;;;;;;;6.22;78.45;96967.31;4976281;28;20220;-84
2021/11/19 00:44:26;;;;;;;9.07;8.17;;;;;;;6.20;78.80;96974.28;4975582;28;20285;-85
2021/11/19 00:47:01;;;;;;;9.20;8.30;;;;;;;6.20;78.76;96972.56;4975408;28;20196;-85
2021/11/19 00:52:25;;;;;;;9.60;8.70;;;;;;;6.17;78.18;96966.84;4973927;28;20207;-85
2021/11/19 00:54:51;;;;;;;9.83;8.83;;;;;;;6.10;78.61;96955.47;4975307;28;20223;-85
2021/11/19 00:57:19;;;;;;;9.37;8.47;;;;;;;6.06;78.91;96959.19;4975833;28;20215;-85
2021/11/19 00:59:47;;;;;;;9.93;8.93;;;;;;;6.04;79.24;96959.28;4975355;28;20263;-85
2021/11/19 01:02:17;;;;;;;9.93;8.93;;;;;;;6.04;79.54;96954.19;4976040;28;20236;-85
2021/11/19 01:04:44;;;;;;;9.77;8.80;;;;;;;6.10;79.74;96955.47;4975201;28;20204;-85
2021/11/19 01:07:12;;;;;;;10.47;9.43;;;;;;;6.12;79.73;96951.06;4975906;28;20204;-85
2021/11/19 01:09:42;;;;;;;10.13;9.10;;;;;;;6.12;80.12;96953.63;4974450;28;20203;-85
2021/11/19 01:12:12;;;;;;;9.83;8.83;;;;;;;6.14;79.99;96959.44;4975096;28;20224;-85
2021/11/19 01:14:42;;;;;;;10.87;9.77;;;;;;;6.15;79.64;96961.88;4975491;28;20258;-85
2021/11/19 01:17:11;;;;;;;10.00;9.00;;;;;;;6.16;79.79;96957.56;4975263;28;20516;-85
2021/11/19 01:19:44;;;;;;;9.77;8.77;;;;;;;6.15;79.54;96950.84;4981083;28;20780;-85
2021/11/19 01:22:14;;;;;;;9.80;8.90;;;;;;;6.16;79.48;96950.69;4974296;28;20323;-85
2021/11/19 01:24:41;;;;;;;9.23;8.33;;;;;;;6.17;78.92;96954.06;4978351;28;20258;-85
2021/11/19 01:27:08;;;;;;;9.57;8.60;;;;;;;6.14;79.49;96955.13;4978934;28;20204;-85
2021/11/19 01:29:35;;;;;;;9.50;8.50;;;;;;;6.11;79.52;96950.25;4979570;28;20227;-85
2021/11/19 01:32:06;;;;;;;9.83;8.83;;;;;;;6.06;79.72;96951.50;4978092;28;20271;-85
2021/11/19 01:34:33;;;;;;;9.63;8.73;;;;;;;6.05;79.68;96953.25;4978383;28;20247;-85
2021/11/19 01:37:02;;;;;;;10.33;9.30;;;;;;;6.05;80.16;96955.00;4978444;28;20263;-86
2021/11/19 01:39:30;;;;;;;11.43;9.30;;;;;;;6.06;79.83;96948.97;4977810;28;20224;-84
2021/11/19 01:42:01;;;;;;;10.40;8.90;;;;;;;6.08;79.42;96952.22;4978275;28;20208;-85
2021/11/19 01:44:30;;;;;;;9.67;8.67;;;;;;;6.06;79.58;96947.22;4977965;28;20204;-85
2021/11/19 01:47:00;;;;;;;10.00;9.00;;;;;;;6.10;79.42;96945.25;4979448;28;20872;-85
2021/11/19 01:49:29;;;;;;;10.23;9.13;;;;;;;6.09;79.29;96949.53;4978683;28;20263;-84
2021/11/19 01:51:58;;;;;;;10.03;9.03;;;;;;;6.07;79.35;96953.16;4980132;28;20667;-85
2021/11/19 01:54:30;;;;;;;10.30;9.20;;;;;;;6.05;79.40;96955.81;4978765;28;20204;-85
2021/11/19 01:57:01;;;;;;;10.20;9.10;;;;;;;6.01;79.91;96958.69;4978308;28;20208;-85
2021/11/19 01:59:33;;;;;;;10.43;9.33;;;;;;;5.88;80.35;96963.91;4987500;28;20224;-85
2021/11/19 02:02:03;;;;;;;10.07;9.07;;;;;;;5.87;79.73;96957.16;4978064;28;20231;-85
2021/11/19 02:04:33;;;;;;;9.63;8.63;;;;;;;5.83;79.93;96951.44;4977150;28;20210;-85
2021/11/19 02:07:03;;;;;;;10.43;9.33;;;;;;;5.87;79.49;96955.41;4977883;28;20215;-85
2021/11/19 02:09:40;;;;;;;11.10;9.13;;;;;;;5.82;79.60;96946.44;4977645;28;20204;-85
2021/11/19 02:12:15;;;;;;;9.37;8.37;;;;;;;5.86;79.46;96938.44;4978025;28;20219;-85
2021/11/19 02:14:51;;;;;;;10.07;9.03;;;;;;;5.89;78.72;96937.44;4977927;28;20767;-85
2021/11/19 02:17:18;;;;;;;9.57;8.63;;;;;;;5.86;78.68;96946.13;4978286;28;20648;-84
2021/11/19 02:19:50;;;;;;;9.57;8.67;;;;;;;5.88;78.67;96956.22;4988980;28;20220;-85
2021/11/19 02:22:19;;;;;;;10.00;9.00;;;;;;;5.81;78.68;96957.59;4978262;28;20862;-85
2021/11/19 02:24:50;;;;;;;9.47;8.57;;;;;;;5.75;78.91;96961.44;4977276;28;20203;-85
2021/11/19 02:27:21;;;;;;;8.93;8.03;;;;;;;5.67;80.51;96971.38;4978380;28;20212;-84
2021/11/19 02:29:52;;;;;;;9.57;8.57;;;;;;;5.70;80.46;96978.03;4977420;28;20216;-85
2021/11/19 02:32:22;;;;;;;9.97;8.93;;;;;;;5.74;80.13;96974.31;4977857;28;20686;-85
2021/11/19 02:34:49;;;;;;;9.57;8.57;;;;;;;5.72;80.46;96971.88;4976733;28;20258;-85
2021/11/19 02:37:19;;;;;;;10.37;9.27;;;;;;;5.68;80.72;96969.66;4979157;28;20196;-85
2021/11/19 02:39:53;;;;;;;9.90;8.90;;;;;;;5.69;80.74;96956.78;4976918;28;21617;-84
2021/11/19 02:42:23;;;;;;;10.60;9.33;;;;;;;5.68;80.53;96954.31;4977459;28;20292;-85
2021/11/19 02:44:51;;;;;;;10.03;9.03;;;;;;;5.68;80.46;96954.31;4977088;28;20680;-85
2021/11/19 02:47:21;;;;;;;10.43;9.17;;;;;;;5.65;80.52;96960.47;4977623;28;20204;-85
2021/11/19 02:49:47;;;;;;;11.17;10.07;;;;;;;5.60;80.65;96962.53;4978266;28;20216;-85
2021/11/19 02:52:19;;;;;;;10.40;9.40;;;;;;;5.59;80.48;96957.53;4977390;28;20200;-85
2021/11/19 02:54:48;;;;;;;10.70;9.60;;;;;;;5.60;80.09;96956.59;4976484;28;20698;-85
2021/11/19 02:57:16;;;;;;;10.23;9.23;;;;;;;5.51;79.82;96960.66;4976046;28;20227;-85
2021/11/19 02:59:44;;;;;;;10.40;9.27;;;;;;;5.50;80.02;96959.84;4977355;28;20646;-85
2021/11/19 03:02:13;;;;;;;10.27;9.17;;;;;;;5.57;79.78;96961.97;4976341;28;20196;-85
2021/11/19 03:04:42;;;;;;;10.97;9.87;;;;;;;5.55;79.52;96973.13;4976720;28;20610;-85
2021/11/19 03:07:09;;;;;;;10.40;9.30;;;;;;;5.55;79.44;96967.19;4976614;28;20203;-86
2021/11/19 03:09:38;;;;;;;9.87;8.83;;;;;;;5.55;79.11;96964.63;4976703;28;20192;-86
2021/11/19 03:12:08;;;;;;;9.60;8.53;;;;;;;5.58;79.12;96976.38;4976853;28;20208;-86
2021/11/19 03:14:35;;;;;;;10.77;9.43;;;;;;;5.55;78.76;96972.28;4976162;28;20254;-86
2021/11/19 03:17:04;;;;;;;10.73;8.77;;;;;;;5.49;78.60;96981.22;4976285;28;20204;-86
2021/11/19 03:19:31;;;;;;;9.83;8.83;;;;;;;5.47;78.69;96980.50;4984199;28;20431;-85
2021/11/19 03:21:58;;;;;;;9.67;8.40;;;;;;;5.48;78.47;96977.03;4974431;28;20235;-86
2021/11/19 03:24:25;;;;;;;9.93;8.83;;;;;;;5.39;78.66;96977.66;4974325;28;20211;-86
2021/11/19 03:26:54;;;;;;;10.57;9.47;;;;;;;5.43;78.63;96973.97;4974615;28;20204;-86
2021/11/19 03:29:23;;;;;;;10.53;9.53;;;;;;;5.42;78.39;96981.75;4974680;28;20239;-86
2021/11/19 03:31:50;;;;;;;9.57;8.40;;;;;;;5.36;78.09;96972.81;4974609;28;20571;-86
2021/11/19 03:34:18;;;;;;;10.57;9.47;;;;;;;5.38;78.23;96978.63;4973756;28;20262;-86
2021/11/19 03:36:47;;;;;;;11.73;9.67;;;;;;;5.42;78.73;96985.13;4974092;28;20257;-86
2021/11/19 03:39:15;;;;;;;10.73;9.50;;;;;;;5.39;78.31;96976.84;4974081;28;20200;-84
2021/11/19 03:41:44;;;;;;;10.20;9.10;;;;;;;5.35;78.56;96973.72;4974164;28;20221;-84
2021/11/19 03:44:16;;;;;;;11.03;9.93;;;;;;;5.34;78.77;96972.09;4974595;28;20200;-84
2021/11/19 03:46:46;;;;;;;9.77;8.77;;;;;;;5.26;78.97;96974.38;4975409;28;20200;-83
2021/11/19 03:49:14;;;;;;;9.83;8.83;;;;;;;5.25;79.47;96964.28;4975126;28;20204;-84
2021/11/19 03:51:43;;;;;;;10.07;9.07;;;;;;;5.27;79.29;96967.53;4975219;28;20259;-84
2021/11/19 03:54:13;;;;;;;13.80;9.47;;;;;;;5.30;79.19;96962.22;4974713;28;20216;-84
2021/11/19 03:56:40;;;;;;;11.00;9.80;;;;;;;5.29;79.82;96966.50;4974562;28;20208;-84
2021/11/19 03:59:08;;;;;;;10.57;9.40;;;;;;;5.31;80.42;96971.50;4988334;28;20200;-84
2021/11/19 04:01:38;;;;;;;10.33;9.33;;;;;;;5.36;79.98;96974.53;4973951;28;20710;-83
2021/11/19 04:04:08;;;;;;;10.27;9.27;;;;;;;5.42;79.93;96974.09;4974243;28;20279;-83
2021/11/19 04:06:35;;;;;;;9.83;8.83;;;;;;;5.46;79.78;96967.84;4973043;28;20203;-84
2021/11/19 04:09:02;;;;;;;9.33;8.40;;;;;;;5.47;79.69;96965.19;4973473;28;20678;-84
2021/11/19 04:11:29;;;;;;;9.40;8.50;;;;;;;5.47;79.24;96964.34;4973654;28;20239;-83
2021/11/19 04:13:56;;;;;;;9.83;8.70;;;;;;;5.45;79.32;96956.00;4975984;28;20196;-84
2021/11/19 04:16:25;;;;;;;10.03;8.53;;;;;;;5.39;79.24;96948.75;4975926;28;20239;-84
2021/11/19 04:18:52;;;;;;;9.77;8.77;;;;;;;5.38;79.59;96947.16;4975881;28;20203;-83
2021/11/19 04:21:21;;;;;;;9.43;8.43;;;;;;;5.32;80.55;96948.41;4974598;28;20313;-83
2021/11/19 04:23:49;;;;;;;9.43;8.43;;;;;;;5.36;79.98;96938.78;4977018;28;20204;-84
2021/11/19 04:26:16;;;;;;;9.33;8.37;;;;;;;5.36;80.27;96941.34;4975655;28;20200;-83
2021/11/19 04:28:45;;;;;;;9.50;8.50;;;;;;;5.37;80.09;96943.78;4976315;28;20196;-83
2021/11/19 04:31:11;;;;;;;8.43;7.63;;;;;;;5.40;80.23;96948.66;4976336;28;20248;-84
2021/11/19 04:33:39;;;;;;;10.77;9.03;;;;;;;5.42;80.08;96953.66;4976863;28;20208;-84
2021/11/19 04:36:06;;;;;;;8.87;8.07;;;;;;;5.40;80.07;96955.50;4975049;28;20196;-84
2021/11/19 04:38:34;;;;;;;10.13;8.50;;;;;;;5.41;80.60;96957.13;4975532;28;20811;-84
2021/11/19 04:41:03;;;;;;;9.40;8.50;;;;;;;5.36;80.38;96954.13;4975651;28;20232;-84
2021/11/19 04:43:31;;;;;;;9.00;8.10;;;;;;;5.36;80.33;96954.13;4975931;28;20196;-83
2021/11/19 04:45:57;;;;;;;8.80;7.90;;;;;;;5.34;80.88;96951.66;4975669;28;20267;-84
2021/11/19 04:48:27;;;;;;;9.33;8.07;;;;;;;5.36;80.73;96944.72;4975417;28;20626;-84
2021/11/19 04:50:54;;;;;;;8.67;7.87;;;;;;;5.35;80.87;96950.75;4974950;28;20224;-84
2021/11/19 04:53:23;;;;;;;9.93;8.20;;;;;;;5.39;81.34;96961.53;4974674;28;20223;-84
2021/11/19 04:55:51;;;;;;;8.67;7.87;;;;;;;5.44;80.17;96959.47;4975072;28;20766;-84
2021/11/19 04:58:18;;;;;;;8.60;7.70;;;;;;;5.41;79.94;96957.94;4979035;28;20690;-84
2021/11/19 05:00:48;;;;;;;8.27;7.33;;;;;;;5.41;79.84;96945.19;4979307;28;20224;-84
2021/11/19 05:03:15;;;;;;;8.57;7.70;;;;;;;5.39;79.70;96949.56;4981554;28;20204;-84
2021/11/19 05:05:46;;;;;;;8.90;8.00;;;;;;;5.37;79.34;96954.00;4981519;28;20204;-84
2021/11/19 05:08:13;;;;;;;9.33;7.33;;;;;;;5.41;79.29;96955.38;4981700;28;20192;-84
2021/11/19 05:10:41;;;;;;;8.60;7.70;;;;;;;5.44;79.19;96957.72;4980720;28;20801;-83
2021/11/19 05:13:09;;;;;;;10.80;5.70;;;;;;;5.82;100.00;96951.56;4980457;28;20211;-83
2021/11/19 05:15:40;;;;;;;8.27;7.50;;;;;;;5.95;81.47;96944.66;4980480;28;20199;-84
2021/11/19 05:18:06;;;;;;;8.27;7.40;;;;;;;5.89;79.39;96945.91;4983300;28;20258;-83
2021/11/19 05:20:33;;;;;;;8.90;7.57;;;;;;;5.75;79.04;96942.72;4981079;28;20274;-84
2021/11/19 05:23:00;;;;;;;9.03;8.13;;;;;;;5.69;78.72;96927.84;4979743;28;20725;-84
2021/11/19 05:25:30;;;;;;;8.60;7.70;;;;;;;5.56;78.91;96940.72;4980226;28;20699;-84
2021/11/19 05:27:57;;;;;;;9.03;8.13;;;;;;;5.49;79.42;96940.34;4980726;28;20201;-83
2021/11/19 05:30:25;;;;;;;9.10;8.20;;;;;;;5.45;79.82;96940.66;4978916;28;20216;-84
2021/11/19 05:32:52;;;;;;;8.73;7.83;;;;;;;5.34;80.92;96944.00;4980416;28;20200;-84
2021/11/19 05:35:20;;;;;;;9.27;8.30;;;;;;;5.36;81.08;96941.34;4979641;28;20204;-83
2021/11/19 05:37:47;;;;;;;9.27;8.37;;;;;;;5.36;81.13;96939.59;4979136;28;20215;-84
2021/11/19 05:40:15;;;;;;;12.07;10.03;;;;;;;5.37;81.37;96932.75;4976016;28;20255;-84
2021/11/19 05:42:42;;;;;;;9.23;8.33;;;;;;;5.34;81.64;96925.31;4974034;28;20298;-84
2021/11/19 05:45:10;;;;;;;9.57;8.47;;;;;;;5.38;81.66;96934.41;4970616;28;20211;-84
2021/11/19 05:47:38;;;;;;;12.10;9.20;;;;;;;5.36;81.85;96934.50;4971042;28;20203;-83
2021/11/19 05:50:09;;;;;;;9.87;8.83;;;;;;;5.40;81.86;96927.41;4967593;28;20307;-84
2021/11/19 05:52:35;;;;;;;10.87;9.17;;;;;;;5.44;81.88;96934.75;4967228;28;20263;-83
2021/11/19 05:55:03;;;;;;;11.73;9.57;;;;;;;5.48;81.96;96922.56;4966495;28;20267;-84
2021/11/19 05:57:30;;;;;;;11.37;10.17;;;;;;;5.47;83.11;96928.59;4966288;28;20263;-84
2021/11/19 05:59:57;;;;;;;11.60;10.33;;;;;;;5.52;82.56;96929.91;4969698;28;20213;-83
2021/11/19 06:02:24;;;;;;;11.67;10.00;;;;;;;5.56;82.53;96927.94;4959339;28;20197;-84
2021/11/19 06:04:52;;;;;;;13.67;10.73;;;;;;;5.61;81.91;96930.13;4978384;28;20200;-83
2021/11/19 06:07:19;;;;;;;11.50;10.30;;;;;;;5.63;82.34;96939.31;4978498;28;20208;-84
2021/11/19 06:09:47;;;;;;;12.93;10.33;;;;;;;5.61;82.08;96938.63;4978720;28;20196;-84
2021/11/19 06:12:19;;;;;;;11.73;10.33;;;;;;;5.63;81.97;96948.72;4978888;28;20220;-84
2021/11/19 06:14:48;;;;;;;11.73;10.53;;;;;;;5.63;81.65;96948.72;4979626;28;20247;-84
2021/11/19 06:17:17;;;;;;;13.33;10.37;;;;;;;5.53;83.62;96953.72;4978715;28;20204;-84
2021/11/19 06:19:48;;;;;;;11.83;10.53;;;;;;;5.52;83.26;96957.19;4967122;28;20197;-84
2021/11/19 06:22:20;;;;;;;11.47;10.10;;;;;;;5.57;82.54;96957.69;4959235;28;20229;-84
2021/11/19 06:24:52;;;;;;;12.67;10.53;;;;;;;5.59;82.31;96953.25;4979001;28;20208;-84
2021/11/19 06:27:24;;;;;;;11.60;10.17;;;;;;;5.60;82.19;96959.97;4979070;28;20631;-84
2021/11/19 06:29:51;;;;;;;11.57;10.10;;;;;;;5.53;82.37;96956.25;4978824;28;20201;-84
2021/11/19 06:32:18;;;;;;;12.30;10.70;;;;;;;5.46;82.88;96957.63;4978096;28;20204;-83
2021/11/19 06:34:44;;;;;;;11.87;10.00;;;;;;;5.50;82.91;96961.59;4978054;28;20220;-84
2021/11/19 06:37:11;;;;;;;12.77;9.37;;;;;;;5.46;86.67;96958.44;4979272;28;20208;-84
2021/11/19 06:39:41;;;;;;;31.67;21.03;;;;;;;5.46;85.42;96963.53;4977859;28;20207;-84
2021/11/19 06:42:08;;;;;;;27.87;19.47;;;;;;;5.59;83.06;96966.00;4978115;28;20224;-84
2021/11/19 06:44:35;;;;;;;17.33;13.47;;;;;;;5.60;82.29;96972.75;4979138;28;20227;-83
2021/11/19 06:47:02;;;;;;;12.97;10.67;;;;;;;5.58;81.81;96979.72;4979519;28;20512;-84
2021/11/19 06:49:28;;;;;;;11.30;9.87;;;;;;;5.58;81.58;96989.16;4978732;28;20207;-84
2021/11/19 06:51:55;;;;;;;12.10;10.30;;;;;;;5.61;82.04;96992.28;4978842;28;20243;-85
2021/11/19 06:54:22;;;;;;;11.67;10.47;;;;;;;5.67;81.55;96988.47;4978998;28;20196;-85
2021/11/19 06:56:51;;;;;;;14.00;9.87;;;;;;;5.74;81.27;97000.69;4979148;28;20204;-85
2021/11/19 06:59:18;;;;;;;10.73;9.60;;;;;;;5.76;81.04;96993.72;4978631;28;20674;-85
2021/11/19 07:01:45;;;;;;;13.10;9.23;;;;;;;5.86;80.99;97006.63;4978028;28;20695;-85
2021/11/19 07:04:12;;;;;;;11.00;9.80;;;;;;;5.88;80.72;97007.34;4978897;28;20232;-85
2021/11/19 07:06:43;;;;;;;10.93;9.23;;;;;;;5.96;80.54;97009.38;4978142;28;20205;-84
2021/11/19 07:09:13;;;;;;;11.00;9.77;;;;;;;5.97;80.07;97009.25;4978327;28;20200;-85
2021/11/19 07:11:43;;;;;;;10.53;9.43;;;;;;;6.06;80.07;97000.91;4959643;28;20736;-85
2021/11/19 07:14:12;;;;;;;10.43;9.33;;;;;;;6.13;79.76;96999.53;4958962;28;20216;-85
2021/11/19 07:16:39;;;;;;;10.27;8.97;;;;;;;6.18;79.34;97005.09;4959164;28;20433;-84
2021/11/19 07:19:07;;;;;;;9.50;8.50;;;;;;;6.26;79.12;97006.28;4979574;28;20262;-85
2021/11/19 07:21:35;;;;;;;11.50;8.87;;;;;;;6.24;78.65;97008.94;4984991;28;20235;-85
2021/11/19 07:24:02;;;;;;;11.30;9.07;;;;;;;6.30;78.28;97010.25;4977694;28;20690;-85
2021/11/19 07:26:30;;;;;;;9.63;8.63;;;;;;;6.30;78.53;97011.06;4976563;28;20208;-84
2021/11/19 07:28:57;;;;;;;9.63;8.63;;;;;;;6.41;78.49;97005.13;4976605;28;20663;-85
2021/11/19 07:31:25;;;;;;;9.87;8.83;;;;;;;6.43;78.35;97011.75;4976125;28;20630;-85
2021/11/19 07:36:39;;;;;;;22.90;17.43;;;;;;;6.56;78.34;97009.88;4975456;28;20211;-85
2021/11/19 07:39:07;;;;;;;15.00;12.40;;;;;;;6.60;78.52;97010.47;4977546;28;20676;-85
2021/11/19 07:41:35;;;;;;;14.93;10.63;;;;;;;6.64;78.74;97011.06;4975510;28;20231;-85
2021/11/19 07:44:02;;;;;;;12.57;9.67;;;;;;;6.73;78.79;97016.31;4979819;28;20578;-85
2021/11/19 07:46:30;;;;;;;11.83;9.37;;;;;;;6.81;78.42;97019.06;4978204;28;20210;-84
2021/11/19 07:48:58;;;;;;;14.37;10.90;;;;;;;6.83;78.67;97016.41;4977998;28;20200;-85
2021/11/19 07:51:31;;;;;;;11.53;10.07;;;;;;;6.76;79.14;97010.13;4977770;28;20220;-85
2021/11/19 07:53:58;;;;;;;13.57;10.43;;;;;;;6.67;79.36;97006.53;4977665;28;20200;-85
2021/11/19 07:56:30;;;;;;;13.73;10.10;;;;;;;6.57;80.79;97010.69;4975256;28;20196;-85
2021/11/19 07:58:57;;;;;;;12.07;9.27;;;;;;;6.53;81.76;97009.34;4977604;28;20556;-84
2021/11/19 08:01:23;;;;;;;11.50;9.53;;;;;;;6.56;81.27;97007.34;4978164;28;20706;-85
2021/11/19 08:03:51;;;;;;;11.07;9.47;;;;;;;6.55;81.65;97008.25;4974257;28;20456;-85
2021/11/19 08:06:18;;;;;;;12.17;8.97;;;;;;;6.58;81.48;97002.09;4977814;28;20694;-84
2021/11/19 08:08:49;;;;;;;10.57;8.70;;;;;;;6.62;81.46;97020.59;4976779;28;20268;-85
2021/11/19 08:11:16;;;;;;;8.90;8.00;;;;;;;6.64;81.50;97011.06;4976907;28;20231;-85
2021/11/19 08:13:43;;;;;;;10.03;8.13;;;;;;;6.65;81.55;97018.63;4977017;28;20617;-85
2021/11/19 08:16:10;;;;;;;8.80;7.80;;;;;;;6.68;81.34;97020.13;4958009;28;20228;-85
2021/11/19 08:18:43;;;;;;;8.57;7.27;;;;;;;6.69;81.32;97021.78;4965921;28;20192;-85
2021/11/19 08:21:11;;;;;;;9.10;7.60;;;;;;;6.75;81.05;97022.09;4963212;28;20290;-85
2021/11/19 08:23:41;;;;;;;9.20;6.73;;;;;;;6.80;80.85;97025.13;4976929;28;20215;-85
2021/11/19 08:26:11;;;;;;;6.90;6.20;;;;;;;6.86;80.83;97022.09;4967693;28;20204;-86
2021/11/19 08:28:37;;;;;;;7.13;6.43;;;;;;;6.91;80.36;97021.75;4975114;28;20200;-85
2021/11/19 08:31:07;;;;;;;8.47;6.87;;;;;;;7.00;80.25;97021.03;4975620;28;20213;-85
2021/11/19 08:33:34;;;;;;;7.17;6.47;;;;;;;7.06;79.87;97032.56;4972411;28;20268;-85
2021/11/19 08:36:00;;;;;;;7.67;6.87;;;;;;;7.12;79.33;97027.75;4960918;28;20254;-85
2021/11/19 08:38:36;;;;;;;10.93;9.33;;;;;;;7.12;79.46;97029.53;4968551;28;20623;-84
2021/11/19 08:41:03;;;;;;;12.27;10.77;;;;;;;7.14;79.69;97022.50;4962857;28;20270;-85
2021/11/19 08:43:33;;;;;;;10.13;8.37;;;;;;;7.19;79.80;97021.22;4976683;28;20200;-84
2021/11/19 08:46:03;;;;;;;7.43;6.70;;;;;;;7.31;79.67;97010.97;4975599;28;20616;-85
2021/11/19 08:48:31;;;;;;;8.37;7.40;;;;;;;7.50;79.67;97011.13;4970366;28;20214;-85
2021/11/19 08:51:00;;;;;;;7.30;6.60;;;;;;;7.74;78.17;97016.03;4976349;28;20212;-85
2021/11/19 08:53:28;;;;;;;7.57;6.30;;;;;;;7.96;77.47;97016.72;4977070;28;20200;-84
2021/11/19 08:55:57;;;;;;;9.67;6.10;;;;;;;8.19;77.22;97008.91;4974659;28;20208;-84
2021/11/19 08:58:26;;;;;;;7.13;6.33;;;;;;;8.39;75.79;97009.84;4984069;28;20199;-85
2021/11/19 09:00:54;;;;;;;8.13;6.40;;;;;;;8.57;75.42;97008.31;4982686;28;20219;-85
2021/11/19 09:03:21;;;;;;;6.50;5.90;;;;;;;8.68;74.03;97007.41;4975671;28;20200;-85
2021/11/19 09:05:49;;;;;;;6.93;5.57;;;;;;;8.85;73.84;97006.81;4975613;28;20208;-85
2021/11/19 09:08:17;;;;;;;6.43;5.83;;;;;;;9.10;73.49;97018.34;4970723;28;20196;-85
2021/11/19 09:10:48;;;;;;;6.03;5.40;;;;;;;9.24;72.30;97012.81;4974726;28;20253;-85
2021/11/19 09:13:15;;;;;;;7.60;6.10;;;;;;;9.29;71.52;97014.06;4955438;28;20820;-85
2021/11/19 09:15:42;;;;;;;5.87;5.37;;;;;;;9.09;70.60;97020.09;4965341;28;20204;-85
2021/11/19 09:18:29;;;;;;;6.00;5.40;;;;;;;8.90;71.25;97020.06;4974257;28;20201;-85
2021/11/19 09:21:07;;;;;;;5.40;4.90;;;;;;;8.79;71.78;97012.47;4975092;28;20220;-85
2021/11/19 09:23:37;;;;;;;5.80;5.27;;;;;;;8.83;72.24;97013.84;4974004;28;20274;-85
2021/11/19 09:26:08;;;;;;;5.30;4.80;;;;;;;8.80;72.85;97017.47;4969556;28;20196;-85
2021/11/19 09:28:37;;;;;;;5.57;5.07;;;;;;;8.80;72.96;97014.91;4956334;28;20200;-85
2021/11/19 09:31:06;;;;;;;4.80;4.40;;;;;;;8.86;73.36;97011.78;4966773;28;20220;-86
2021/11/19 09:33:34;;;;;;;5.70;5.07;;;;;;;8.89;72.92;97010.72;4971363;28;20204;-85
2021/11/19 09:36:00;;;;;;;5.43;4.50;;;;;;;8.86;72.44;97006.66;4970066;28;20211;-85
2021/11/19 09:38:29;;;;;;;5.07;4.43;;;;;;;8.75;72.74;97013.66;4974861;28;20208;-84
2021/11/19 09:41:03;;;;;;;5.73;4.90;;;;;;;8.87;73.05;97012.59;4974857;28;20224;-84
2021/11/19 09:43:43;;;;;;;11.30;9.43;;;;;;;9.10;72.84;97013.22;4975707;28;20578;-84
2021/11/19 09:46:50;;;;;;;5.23;4.73;;;;;;;9.24;71.94;97011.06;4979340;28;20208;-85
2021/11/19 09:49:50;;;;;;;5.23;4.73;;;;;;;9.30;71.59;97009.72;4978860;28;20208;-86
2021/11/19 09:52:55;;;;;;;5.77;5.17;;;;;;;9.31;71.45;97001.88;4965997;28;20602;-85
2021/11/19 09:55:42;;;;;;;6.07;5.47;;;;;;;9.26;71.53;96998.91;4974960;28;20207;-84
2021/11/19 09:58:24;;;;;;;6.40;5.80;;;;;;;9.41;71.33;96998.53;4977877;28;20207;-85
2021/11/19 10:01:16;;;;;;;6.67;6.07;;;;;;;9.54;71.50;96999.88;4977632;28;20227;-85
2021/11/19 10:03:58;;;;;;;8.20;7.37;;;;;;;9.56;70.53;96994.59;4977032;28;20208;-85
2021/11/19 10:06:30;;;;;;;8.73;7.87;;;;;;;9.59;70.22;97000.28;4976275;28;20204;-84
2021/11/19 10:08:59;;;;;;;9.20;8.27;;;;;;;9.57;69.42;97001.38;4964696;28;20200;-85
2021/11/19 10:11:33;;;;;;;9.47;7.97;;;;;;;9.46;69.85;97002.31;4975244;28;20224;-85
2021/11/19 10:14:16;;;;;;;9.43;8.53;;;;;;;9.39;69.65;97001.22;4972397;28;20207;-85
2021/11/19 10:16:58;;;;;;;9.70;8.70;;;;;;;9.30;69.75;96997.69;4959728;28;20699;-85
2021/11/19 10:19:27;;;;;;;9.40;8.50;;;;;;;9.24;69.66;96998.22;4971052;28;20196;-85
2021/11/19 10:22:02;;;;;;;9.30;8.33;;;;;;;9.22;70.45;97000.13;4979802;28;20255;-85
2021/11/19 10:24:36;;;;;;;9.33;8.30;;;;;;;9.24;70.44;96994.84;4977170;28;20200;-85
2021/11/19 10:27:04;;;;;;;10.17;8.80;;;;;;;9.18;70.44;96996.19;4976533;28;20201;-85
2021/11/19 10:29:37;;;;;;;10.60;9.30;;;;;;;9.11;70.00;96996.84;4975161;28;20259;-85
2021/11/19 10:32:09;;;;;;;11.67;9.10;;;;;;;9.11;70.33;96989.13;4975441;28;20224;-85
2021/11/19 10:34:42;;;;;;;9.70;8.70;;;;;;;9.09;70.93;96986.69;4969732;28;20220;-85
2021/11/19 10:37:38;;;;;;;10.67;8.83;;;;;;;9.13;70.87;96982.13;4967803;28;20204;-85
2021/11/19 10:40:24;;;;;;;9.47;8.47;;;;;;;9.15;70.60;96986.19;4976002;28;20634;-85
2021/11/19 10:43:32;;;;;;;9.40;8.50;;;;;;;9.14;70.67;96976.84;4974206;28;20220;-85
2021/11/19 10:46:23;;;;;;;10.63;7.73;;;;;;;9.14;71.06;96970.91;4974788;28;20714;-85
2021/11/19 10:49:19;;;;;;;10.23;8.87;;;;;;;9.22;71.25;96974.44;4974712;28;20205;-85
2021/11/19 10:52:16;;;;;;;10.17;8.90;;;;;;;9.29;70.83;96970.38;4974965;28;20216;-85
2021/11/19 10:55:25;;;;;;;21.17;16.77;;;;;;;9.33;70.70;96974.28;4972939;28;20204;-85
2021/11/19 10:58:25;;;;;;;13.87;12.37;;;;;;;9.40;70.68;96969.44;4970301;28;20227;-85
2021/11/19 11:01:09;;;;;;;11.30;10.10;;;;;;;9.45;70.07;96969.00;4975274;28;20307;-85
2021/11/19 11:03:41;;;;;;;12.43;10.17;;;;;;;9.54;69.95;96963.88;4975320;28;20231;-85
2021/11/19 11:06:17;;;;;;;10.43;9.33;;;;;;;9.56;69.87;96963.75;4976040;28;20205;-84
2021/11/19 11:08:45;;;;;;;10.33;9.23;;;;;;;9.65;69.88;96968.06;4975028;28;20214;-85
2021/11/19 11:11:14;;;;;;;10.37;9.27;;;;;;;9.67;69.42;96968.75;4976118;28;20236;-85
2021/11/19 11:13:57;;;;;;;10.60;9.50;;;;;;;9.77;69.01;96971.31;4975766;28;20204;-85
2021/11/19 11:16:27;;;;;;;9.97;8.97;;;;;;;9.92;68.75;96959.66;4974876;28;20266;-85
2021/11/19 11:18:57;;;;;;;10.37;9.37;;;;;;;10.03;68.46;96956.91;4979673;28;20254;-85
2021/11/19 11:21:29;;;;;;;23.80;19.30;;;;;;;10.18;68.28;96950.38;4974211;28;20235;-85
2021/11/19 11:24:10;;;;;;;11.23;10.00;;;;;;;10.30;66.97;96946.69;4986991;28;20204;-85
2021/11/19 11:26:41;;;;;;;10.43;8.97;;;;;;;10.25;66.46;96936.00;4967611;28;20201;-85
2021/11/19 11:29:32;;;;;;;9.90;8.90;;;;;;;10.34;66.41;96935.19;4967386;28;20203;-85
2021/11/19 11:32:10;;;;;;;9.57;8.43;;;;;;;10.37;66.29;96936.66;4975474;28;20306;-85
2021/11/19 11:34:50;;;;;;;10.63;8.93;;;;;;;10.43;66.59;96928.34;4974377;28;20204;-84
2021/11/19 11:37:38;;;;;;;9.43;8.53;;;;;;;10.49;66.10;96914.09;4974947;28;20200;-85
2021/11/19 11:40:08;;;;;;;10.13;8.97;;;;;;;10.58;65.90;96902.97;4973616;28;20228;-85
2021/11/19 11:42:51;;;;;;;10.23;9.23;;;;;;;10.50;65.25;96901.09;4973330;28;20231;-86
2021/11/19 11:45:32;;;;;;;9.60;8.70;;;;;;;10.71;65.35;96891.34;4974279;28;20223;-85
2021/11/19 11:48:11;;;;;;;10.53;8.13;;;;;;;10.90;64.94;96885.25;4968402;28;20217;-85
2021/11/19 11:50:46;;;;;;;8.93;8.03;;;;;;;11.09;64.85;96881.72;4964813;28;20223;-85
2021/11/19 11:53:16;;;;;;;10.47;7.97;;;;;;;11.33;64.55;96886.28;4974511;28;20223;-84
2021/11/19 11:55:46;;;;;;;8.70;7.00;;;;;;;11.45;63.48;96881.69;4972411;28;20207;-85
2021/11/19 11:58:31;;;;;;;7.23;6.07;;;;;;;11.34;61.12;96882.75;4975066;28;20258;-85
2021/11/19 12:01:08;;;;;;;6.37;5.77;;;;;;;11.28;61.74;96891.06;4974516;28;20218;-85